sensor_id;sensor_type;location;lat;lon;timestamp;P1;durP1;ratioP1;P2;durP2;ratioP2
76423;SDS011;65257;52.104;4.268;2023-09-08T00:02:16;15.57;;;12.27;;
76423;SDS011;65257;52.104;4.268;2023-09-08T00:04:41;17.38;;;12.55;;
76423;SDS011;65257;52.104;4.268;2023-09-08T00:07:07;17.40;;;12.02;;
76423;SDS011;65257;52.104;4.268;2023-09-08T00:09:33;16.63;;;11.85;;
76423;SDS011;65257;52.104;4.268;2023-09-08T00:11:58;18.20;;;12.48;;
76423;SDS011;65257;52.104;4.268;2023-09-08T00:14:30;18.95;;;10.95;;
76423;SDS011;65257;52.104;4.268;2023-09-08T00:16:55;18.20;;;11.10;;
76423;SDS011;65257;52.104;4.268;2023-09-08T00:19:24;16.40;;;13.02;;
76423;SDS011;65257;52.104;4.268;2023-09-08T00:21:49;17.15;;;11.88;;
76423;SDS011;65257;52.104;4.268;2023-09-08T00:24:15;20.38;;;12.57;;
76423;SDS011;65257;52.104;4.268;2023-09-08T00:26:44;15.50;;;12.65;;
76423;SDS011;65257;52.104;4.268;2023-09-08T00:29:18;16.17;;;12.55;;
76423;SDS011;65257;52.104;4.268;2023-09-08T00:31:47;17.60;;;12.00;;
76423;SDS011;65257;52.104;4.268;2023-09-08T00:34:12;16.38;;;11.80;;
76423;SDS011;65257;52.104;4.268;2023-09-08T00:36:38;17.17;;;11.48;;
76423;SDS011;65257;52.104;4.268;2023-09-08T00:39:03;17.85;;;12.27;;
76423;SDS011;65257;52.104;4.268;2023-09-08T00:41:29;19.60;;;12.32;;
76423;SDS011;65257;52.104;4.268;2023-09-08T00:43:54;15.57;;;11.77;;
76423;SDS011;65257;52.104;4.268;2023-09-08T00:46:22;20.48;;;12.57;;
76423;SDS011;65257;52.104;4.268;2023-09-08T00:48:48;16.00;;;12.32;;
76423;SDS011;65257;52.104;4.268;2023-09-08T00:51:14;18.25;;;11.90;;
76423;SDS011;65257;52.104;4.268;2023-09-08T00:56:34;18.13;;;12.25;;
76423;SDS011;65257;52.104;4.268;2023-09-08T00:59:02;18.40;;;12.57;;
76423;SDS011;65257;52.104;4.268;2023-09-08T01:01:33;17.48;;;12.40;;
76423;SDS011;65257;52.104;4.268;2023-09-08T01:04:00;18.63;;;12.27;;
76423;SDS011;65257;52.104;4.268;2023-09-08T01:06:26;17.77;;;13.15;;
76423;SDS011;65257;52.104;4.268;2023-09-08T01:08:58;20.20;;;13.05;;
76423;SDS011;65257;52.104;4.268;2023-09-08T01:11:25;20.10;;;13.07;;
76423;SDS011;65257;52.104;4.268;2023-09-08T01:13:56;22.73;;;13.40;;
76423;SDS011;65257;52.104;4.268;2023-09-08T01:16:25;25.20;;;14.18;;
76423;SDS011;65257;52.104;4.268;2023-09-08T01:18:50;20.27;;;13.20;;
76423;SDS011;65257;52.104;4.268;2023-09-08T01:21:35;22.73;;;14.75;;
76423;SDS011;65257;52.104;4.268;2023-09-08T01:27:35;18.95;;;13.32;;
76423;SDS011;65257;52.104;4.268;2023-09-08T01:32:32;22.45;;;13.25;;
76423;SDS011;65257;52.104;4.268;2023-09-08T01:34:59;25.08;;;14.85;;
76423;SDS011;65257;52.104;4.268;2023-09-08T01:37:25;25.90;;;14.68;;
76423;SDS011;65257;52.104;4.268;2023-09-08T01:39:51;32.25;;;15.95;;
76423;SDS011;65257;52.104;4.268;2023-09-08T01:42:16;26.58;;;15.57;;
76423;SDS011;65257;52.104;4.268;2023-09-08T01:44:42;30.55;;;17.00;;
76423;SDS011;65257;52.104;4.268;2023-09-08T01:47:07;31.70;;;16.92;;
76423;SDS011;65257;52.104;4.268;2023-09-08T01:49:36;29.98;;;16.80;;
76423;SDS011;65257;52.104;4.268;2023-09-08T01:52:01;25.25;;;14.88;;
76423;SDS011;65257;52.104;4.268;2023-09-08T01:54:30;26.00;;;15.02;;
76423;SDS011;65257;52.104;4.268;2023-09-08T01:56:55;20.02;;;14.30;;
76423;SDS011;65257;52.104;4.268;2023-09-08T01:59:24;19.33;;;14.35;;
76423;SDS011;65257;52.104;4.268;2023-09-08T02:01:50;19.60;;;13.48;;
76423;SDS011;65257;52.104;4.268;2023-09-08T02:04:15;19.10;;;13.60;;
76423;SDS011;65257;52.104;4.268;2023-09-08T02:06:40;21.23;;;13.75;;
76423;SDS011;65257;52.104;4.268;2023-09-08T02:09:07;19.35;;;14.48;;
76423;SDS011;65257;52.104;4.268;2023-09-08T02:11:38;20.95;;;13.68;;
76423;SDS011;65257;52.104;4.268;2023-09-08T02:14:03;19.70;;;13.55;;
76423;SDS011;65257;52.104;4.268;2023-09-08T02:16:29;21.40;;;14.02;;
76423;SDS011;65257;52.104;4.268;2023-09-08T02:18:54;20.83;;;14.18;;
76423;SDS011;65257;52.104;4.268;2023-09-08T02:21:20;21.08;;;13.77;;
76423;SDS011;65257;52.104;4.268;2023-09-08T02:23:49;22.45;;;14.07;;
76423;SDS011;65257;52.104;4.268;2023-09-08T02:26:15;21.77;;;13.93;;
76423;SDS011;65257;52.104;4.268;2023-09-08T02:28:40;19.67;;;13.57;;
76423;SDS011;65257;52.104;4.268;2023-09-08T02:31:06;19.55;;;14.00;;
76423;SDS011;65257;52.104;4.268;2023-09-08T02:33:31;18.08;;;13.57;;
76423;SDS011;65257;52.104;4.268;2023-09-08T02:36:03;19.73;;;14.07;;
76423;SDS011;65257;52.104;4.268;2023-09-08T02:38:31;18.35;;;13.27;;
76423;SDS011;65257;52.104;4.268;2023-09-08T02:40:57;20.25;;;14.27;;
76423;SDS011;65257;52.104;4.268;2023-09-08T02:43:22;22.45;;;14.00;;
76423;SDS011;65257;52.104;4.268;2023-09-08T02:45:49;20.70;;;14.93;;
76423;SDS011;65257;52.104;4.268;2023-09-08T02:48:15;22.08;;;14.60;;
76423;SDS011;65257;52.104;4.268;2023-09-08T02:50:43;20.80;;;13.73;;
76423;SDS011;65257;52.104;4.268;2023-09-08T02:53:08;20.17;;;13.75;;
76423;SDS011;65257;52.104;4.268;2023-09-08T02:55:37;20.50;;;14.05;;
76423;SDS011;65257;52.104;4.268;2023-09-08T02:58:11;19.65;;;14.25;;
76423;SDS011;65257;52.104;4.268;2023-09-08T03:00:40;20.10;;;14.32;;
76423;SDS011;65257;52.104;4.268;2023-09-08T03:03:05;20.25;;;14.60;;
76423;SDS011;65257;52.104;4.268;2023-09-08T03:05:39;20.50;;;14.02;;
76423;SDS011;65257;52.104;4.268;2023-09-08T03:08:05;20.40;;;14.75;;
76423;SDS011;65257;52.104;4.268;2023-09-08T03:10:33;24.15;;;15.60;;
76423;SDS011;65257;52.104;4.268;2023-09-08T03:13:41;22.42;;;14.68;;
76423;SDS011;65257;52.104;4.268;2023-09-08T03:15:48;21.40;;;15.15;;
76423;SDS011;65257;52.104;4.268;2023-09-08T03:18:13;24.15;;;15.50;;
76423;SDS011;65257;52.104;4.268;2023-09-08T03:20:48;21.50;;;15.40;;
76423;SDS011;65257;52.104;4.268;2023-09-08T03:23:15;23.25;;;16.05;;
76423;SDS011;65257;52.104;4.268;2023-09-08T03:25:43;22.13;;;15.45;;
76423;SDS011;65257;52.104;4.268;2023-09-08T03:28:09;23.00;;;16.30;;
76423;SDS011;65257;52.104;4.268;2023-09-08T03:30:34;20.15;;;14.57;;
76423;SDS011;65257;52.104;4.268;2023-09-08T03:32:59;24.65;;;15.90;;
76423;SDS011;65257;52.104;4.268;2023-09-08T03:35:28;26.33;;;15.82;;
76423;SDS011;65257;52.104;4.268;2023-09-08T03:37:56;21.13;;;15.20;;
76423;SDS011;65257;52.104;4.268;2023-09-08T03:40:22;24.08;;;17.00;;
76423;SDS011;65257;52.104;4.268;2023-09-08T03:42:49;21.25;;;15.30;;
76423;SDS011;65257;52.104;4.268;2023-09-08T03:45:17;21.85;;;15.95;;
76423;SDS011;65257;52.104;4.268;2023-09-08T03:47:42;21.83;;;15.65;;
76423;SDS011;65257;52.104;4.268;2023-09-08T03:50:14;24.63;;;15.70;;
76423;SDS011;65257;52.104;4.268;2023-09-08T03:52:39;23.23;;;15.57;;
76423;SDS011;65257;52.104;4.268;2023-09-08T03:55:08;24.55;;;16.27;;
76423;SDS011;65257;52.104;4.268;2023-09-08T03:57:33;23.92;;;15.80;;
76423;SDS011;65257;52.104;4.268;2023-09-08T03:59:58;24.35;;;16.85;;
76423;SDS011;65257;52.104;4.268;2023-09-08T04:02:24;23.65;;;15.90;;
76423;SDS011;65257;52.104;4.268;2023-09-08T04:04:49;28.30;;;17.38;;
76423;SDS011;65257;52.104;4.268;2023-09-08T04:07:14;22.90;;;16.77;;
76423;SDS011;65257;52.104;4.268;2023-09-08T04:09:40;25.85;;;15.68;;
76423;SDS011;65257;52.104;4.268;2023-09-08T04:12:05;23.08;;;16.10;;
76423;SDS011;65257;52.104;4.268;2023-09-08T04:14:34;22.00;;;16.10;;
76423;SDS011;65257;52.104;4.268;2023-09-08T04:17:01;27.13;;;17.42;;
76423;SDS011;65257;52.104;4.268;2023-09-08T04:19:26;25.10;;;17.27;;
76423;SDS011;65257;52.104;4.268;2023-09-08T04:21:52;28.20;;;16.65;;
76423;SDS011;65257;52.104;4.268;2023-09-08T04:24:17;24.08;;;17.30;;
76423;SDS011;65257;52.104;4.268;2023-09-08T04:26:42;23.05;;;15.88;;
76423;SDS011;65257;52.104;4.268;2023-09-08T04:29:08;22.02;;;15.77;;
76423;SDS011;65257;52.104;4.268;2023-09-08T04:31:33;22.13;;;15.60;;
76423;SDS011;65257;52.104;4.268;2023-09-08T04:34:02;23.23;;;15.77;;
76423;SDS011;65257;52.104;4.268;2023-09-08T04:36:30;23.48;;;16.80;;
76423;SDS011;65257;52.104;4.268;2023-09-08T04:38:56;23.40;;;16.33;;
76423;SDS011;65257;52.104;4.268;2023-09-08T04:41:21;20.70;;;14.80;;
76423;SDS011;65257;52.104;4.268;2023-09-08T04:43:47;21.48;;;15.45;;
76423;SDS011;65257;52.104;4.268;2023-09-08T04:46:12;20.05;;;14.80;;
76423;SDS011;65257;52.104;4.268;2023-09-08T04:48:38;22.85;;;15.55;;
76423;SDS011;65257;52.104;4.268;2023-09-08T04:51:03;25.75;;;16.33;;
76423;SDS011;65257;52.104;4.268;2023-09-08T04:53:34;22.98;;;15.85;;
76423;SDS011;65257;52.104;4.268;2023-09-08T04:56:01;22.20;;;16.25;;
76423;SDS011;65257;52.104;4.268;2023-09-08T04:58:27;24.60;;;16.15;;
76423;SDS011;65257;52.104;4.268;2023-09-08T05:00:52;22.85;;;16.42;;
76423;SDS011;65257;52.104;4.268;2023-09-08T05:03:18;22.58;;;14.98;;
76423;SDS011;65257;52.104;4.268;2023-09-08T05:05:49;22.95;;;17.08;;
76423;SDS011;65257;52.104;4.268;2023-09-08T05:08:17;22.00;;;16.00;;
76423;SDS011;65257;52.104;4.268;2023-09-08T05:10:43;23.55;;;16.13;;
76423;SDS011;65257;52.104;4.268;2023-09-08T05:13:09;21.63;;;15.75;;
76423;SDS011;65257;52.104;4.268;2023-09-08T05:15:35;23.48;;;15.88;;
76423;SDS011;65257;52.104;4.268;2023-09-08T05:18:00;25.15;;;17.52;;
76423;SDS011;65257;52.104;4.268;2023-09-08T05:20:25;23.52;;;16.30;;
76423;SDS011;65257;52.104;4.268;2023-09-08T05:22:51;24.70;;;16.13;;
76423;SDS011;65257;52.104;4.268;2023-09-08T05:25:19;23.55;;;15.80;;
76423;SDS011;65257;52.104;4.268;2023-09-08T05:27:45;21.60;;;15.65;;
76423;SDS011;65257;52.104;4.268;2023-09-08T05:30:13;25.42;;;16.60;;
76423;SDS011;65257;52.104;4.268;2023-09-08T05:32:39;23.10;;;16.85;;
76423;SDS011;65257;52.104;4.268;2023-09-08T05:35:05;24.27;;;16.10;;
76423;SDS011;65257;52.104;4.268;2023-09-08T05:37:33;22.80;;;15.38;;
76423;SDS011;65257;52.104;4.268;2023-09-08T05:40:05;23.90;;;16.73;;
76423;SDS011;65257;52.104;4.268;2023-09-08T05:42:33;23.50;;;16.88;;
76423;SDS011;65257;52.104;4.268;2023-09-08T05:44:58;27.42;;;15.85;;
76423;SDS011;65257;52.104;4.268;2023-09-08T05:47:23;25.15;;;15.95;;
76423;SDS011;65257;52.104;4.268;2023-09-08T05:49:49;22.67;;;15.45;;
76423;SDS011;65257;52.104;4.268;2023-09-08T05:52:14;23.63;;;15.73;;
76423;SDS011;65257;52.104;4.268;2023-09-08T05:54:39;23.65;;;16.40;;
76423;SDS011;65257;52.104;4.268;2023-09-08T05:57:05;25.20;;;17.05;;
76423;SDS011;65257;52.104;4.268;2023-09-08T05:59:31;24.00;;;16.70;;
76423;SDS011;65257;52.104;4.268;2023-09-08T06:01:57;22.48;;;16.20;;
76423;SDS011;65257;52.104;4.268;2023-09-08T06:04:22;22.02;;;15.32;;
76423;SDS011;65257;52.104;4.268;2023-09-08T06:06:54;21.38;;;15.40;;
76423;SDS011;65257;52.104;4.268;2023-09-08T06:09:20;21.77;;;16.38;;
76423;SDS011;65257;52.104;4.268;2023-09-08T06:11:45;25.48;;;17.00;;
76423;SDS011;65257;52.104;4.268;2023-09-08T06:14:13;26.98;;;17.33;;
76423;SDS011;65257;52.104;4.268;2023-09-08T06:16:39;21.25;;;16.02;;
76423;SDS011;65257;52.104;4.268;2023-09-08T06:19:05;24.45;;;17.02;;
76423;SDS011;65257;52.104;4.268;2023-09-08T06:21:30;26.00;;;16.02;;
76423;SDS011;65257;52.104;4.268;2023-09-08T06:23:55;22.38;;;16.17;;
76423;SDS011;65257;52.104;4.268;2023-09-08T06:26:21;27.92;;;18.13;;
76423;SDS011;65257;52.104;4.268;2023-09-08T06:28:46;25.45;;;17.23;;
76423;SDS011;65257;52.104;4.268;2023-09-08T06:31:12;25.23;;;17.17;;
76423;SDS011;65257;52.104;4.268;2023-09-08T06:33:39;28.48;;;17.92;;
76423;SDS011;65257;52.104;4.268;2023-09-08T06:36:05;29.77;;;18.42;;
76423;SDS011;65257;52.104;4.268;2023-09-08T06:38:34;26.02;;;18.02;;
76423;SDS011;65257;52.104;4.268;2023-09-08T06:41:00;27.65;;;18.30;;
76423;SDS011;65257;52.104;4.268;2023-09-08T06:43:28;25.10;;;17.75;;
76423;SDS011;65257;52.104;4.268;2023-09-08T06:45:54;23.88;;;17.15;;
76423;SDS011;65257;52.104;4.268;2023-09-08T06:48:22;26.17;;;19.00;;
76423;SDS011;65257;52.104;4.268;2023-09-08T06:50:54;25.58;;;17.83;;
76423;SDS011;65257;52.104;4.268;2023-09-08T06:53:21;25.80;;;17.75;;
76423;SDS011;65257;52.104;4.268;2023-09-08T06:55:47;23.88;;;18.60;;
76423;SDS011;65257;52.104;4.268;2023-09-08T06:58:24;28.45;;;17.73;;
76423;SDS011;65257;52.104;4.268;2023-09-08T07:00:53;25.13;;;17.92;;
76423;SDS011;65257;52.104;4.268;2023-09-08T07:03:20;25.58;;;17.77;;
76423;SDS011;65257;52.104;4.268;2023-09-08T07:05:47;28.15;;;18.30;;
76423;SDS011;65257;52.104;4.268;2023-09-08T07:08:20;25.65;;;18.10;;
76423;SDS011;65257;52.104;4.268;2023-09-08T07:10:46;25.50;;;17.98;;
76423;SDS011;65257;52.104;4.268;2023-09-08T07:13:21;25.52;;;17.90;;
76423;SDS011;65257;52.104;4.268;2023-09-08T07:15:47;31.00;;;19.25;;
76423;SDS011;65257;52.104;4.268;2023-09-08T07:18:12;27.20;;;17.50;;
76423;SDS011;65257;52.104;4.268;2023-09-08T07:20:40;26.63;;;18.30;;
76423;SDS011;65257;52.104;4.268;2023-09-08T07:23:06;25.60;;;17.00;;
76423;SDS011;65257;52.104;4.268;2023-09-08T07:25:31;27.73;;;17.35;;
76423;SDS011;65257;52.104;4.268;2023-09-08T07:27:57;21.17;;;17.33;;
76423;SDS011;65257;52.104;4.268;2023-09-08T07:30:22;21.88;;;17.45;;
76423;SDS011;65257;52.104;4.268;2023-09-08T07:32:48;28.10;;;17.75;;
76423;SDS011;65257;52.104;4.268;2023-09-08T07:35:13;20.92;;;16.00;;
76423;SDS011;65257;52.104;4.268;2023-09-08T07:37:42;20.48;;;15.70;;
76423;SDS011;65257;52.104;4.268;2023-09-08T07:40:12;23.60;;;16.95;;
76423;SDS011;65257;52.104;4.268;2023-09-08T07:42:43;21.85;;;16.73;;
76423;SDS011;65257;52.104;4.268;2023-09-08T07:45:14;22.17;;;16.92;;
76423;SDS011;65257;52.104;4.268;2023-09-08T07:47:39;21.73;;;15.85;;
76423;SDS011;65257;52.104;4.268;2023-09-08T07:50:21;23.38;;;16.23;;
76423;SDS011;65257;52.104;4.268;2023-09-08T07:52:49;19.33;;;16.10;;
76423;SDS011;65257;52.104;4.268;2023-09-08T07:55:16;22.25;;;16.23;;
76423;SDS011;65257;52.104;4.268;2023-09-08T07:57:44;21.75;;;16.80;;
76423;SDS011;65257;52.104;4.268;2023-09-08T08:00:16;24.08;;;17.50;;
76423;SDS011;65257;52.104;4.268;2023-09-08T08:02:44;22.20;;;17.10;;
76423;SDS011;65257;52.104;4.268;2023-09-08T08:05:14;22.50;;;17.83;;
76423;SDS011;65257;52.104;4.268;2023-09-08T08:07:41;22.50;;;16.08;;
76423;SDS011;65257;52.104;4.268;2023-09-08T08:10:07;18.27;;;14.90;;
76423;SDS011;65257;52.104;4.268;2023-09-08T08:12:38;22.70;;;15.60;;
76423;SDS011;65257;52.104;4.268;2023-09-08T08:15:05;19.73;;;14.40;;
76423;SDS011;65257;52.104;4.268;2023-09-08T08:17:31;20.27;;;13.93;;
76423;SDS011;65257;52.104;4.268;2023-09-08T08:19:57;18.23;;;13.52;;
76423;SDS011;65257;52.104;4.268;2023-09-08T08:22:47;18.77;;;13.93;;
76423;SDS011;65257;52.104;4.268;2023-09-08T08:25:12;22.77;;;13.23;;
76423;SDS011;65257;52.104;4.268;2023-09-08T08:27:41;19.33;;;11.32;;
76423;SDS011;65257;52.104;4.268;2023-09-08T08:30:07;19.02;;;12.75;;
76423;SDS011;65257;52.104;4.268;2023-09-08T08:32:34;18.67;;;14.52;;
76423;SDS011;65257;52.104;4.268;2023-09-08T08:35:06;18.90;;;15.20;;
76423;SDS011;65257;52.104;4.268;2023-09-08T08:37:35;25.00;;;14.65;;
76423;SDS011;65257;52.104;4.268;2023-09-08T08:40:00;20.75;;;12.82;;
76423;SDS011;65257;52.104;4.268;2023-09-08T08:42:47;18.98;;;14.02;;
76423;SDS011;65257;52.104;4.268;2023-09-08T08:45:11;21.70;;;14.48;;
76423;SDS011;65257;52.104;4.268;2023-09-08T08:47:37;20.25;;;14.32;;
76423;SDS011;65257;52.104;4.268;2023-09-08T08:50:04;19.75;;;15.43;;
76423;SDS011;65257;52.104;4.268;2023-09-08T08:52:38;29.48;;;17.45;;
76423;SDS011;65257;52.104;4.268;2023-09-08T08:55:04;29.83;;;17.65;;
76423;SDS011;65257;52.104;4.268;2023-09-08T08:57:36;23.65;;;17.48;;
76423;SDS011;65257;52.104;4.268;2023-09-08T09:00:09;27.35;;;17.85;;
76423;SDS011;65257;52.104;4.268;2023-09-08T09:02:42;27.73;;;18.90;;
76423;SDS011;65257;52.104;4.268;2023-09-08T09:05:12;24.25;;;20.08;;
76423;SDS011;65257;52.104;4.268;2023-09-08T09:07:46;29.13;;;20.30;;
76423;SDS011;65257;52.104;4.268;2023-09-08T09:10:13;26.00;;;20.63;;
76423;SDS011;65257;52.104;4.268;2023-09-08T09:12:39;24.25;;;18.83;;
76423;SDS011;65257;52.104;4.268;2023-09-08T09:15:06;27.10;;;17.80;;
76423;SDS011;65257;52.104;4.268;2023-09-08T09:17:36;23.40;;;16.15;;
76423;SDS011;65257;52.104;4.268;2023-09-08T09:20:17;22.17;;;14.13;;
76423;SDS011;65257;52.104;4.268;2023-09-08T09:22:59;13.85;;;10.85;;
76423;SDS011;65257;52.104;4.268;2023-09-08T09:25:26;15.65;;;11.40;;
76423;SDS011;65257;52.104;4.268;2023-09-08T09:27:54;16.42;;;11.07;;
76423;SDS011;65257;52.104;4.268;2023-09-08T09:30:26;13.30;;;11.90;;
76423;SDS011;65257;52.104;4.268;2023-09-08T09:32:59;20.73;;;13.25;;
76423;SDS011;65257;52.104;4.268;2023-09-08T09:35:39;17.80;;;11.43;;
76423;SDS011;65257;52.104;4.268;2023-09-08T09:38:18;14.27;;;11.05;;
76423;SDS011;65257;52.104;4.268;2023-09-08T09:40:46;12.30;;;9.10;;
76423;SDS011;65257;52.104;4.268;2023-09-08T09:43:14;12.75;;;9.82;;
76423;SDS011;65257;52.104;4.268;2023-09-08T09:48:16;12.05;;;9.15;;
76423;SDS011;65257;52.104;4.268;2023-09-08T09:50:44;11.75;;;9.25;;
76423;SDS011;65257;52.104;4.268;2023-09-08T09:53:14;11.15;;;8.00;;
76423;SDS011;65257;52.104;4.268;2023-09-08T09:55:41;12.32;;;9.23;;
76423;SDS011;65257;52.104;4.268;2023-09-08T09:58:09;11.10;;;8.32;;
76423;SDS011;65257;52.104;4.268;2023-09-08T10:00:39;16.27;;;12.23;;
76423;SDS011;65257;52.104;4.268;2023-09-08T10:03:12;13.65;;;10.05;;
76423;SDS011;65257;52.104;4.268;2023-09-08T10:05:39;12.75;;;9.23;;
76423;SDS011;65257;52.104;4.268;2023-09-08T10:08:04;16.27;;;10.02;;
76423;SDS011;65257;52.104;4.268;2023-09-08T10:10:30;14.93;;;10.70;;
76423;SDS011;65257;52.104;4.268;2023-09-08T10:12:59;15.85;;;14.07;;
76423;SDS011;65257;52.104;4.268;2023-09-08T10:15:31;16.27;;;12.48;;
76423;SDS011;65257;52.104;4.268;2023-09-08T10:18:00;20.95;;;13.35;;
76423;SDS011;65257;52.104;4.268;2023-09-08T10:20:29;19.75;;;15.05;;
76423;SDS011;65257;52.104;4.268;2023-09-08T10:23:06;18.15;;;14.30;;
76423;SDS011;65257;52.104;4.268;2023-09-08T10:25:43;17.90;;;14.07;;
76423;SDS011;65257;52.104;4.268;2023-09-08T10:28:15;20.08;;;15.60;;
76423;SDS011;65257;52.104;4.268;2023-09-08T10:30:41;23.15;;;15.13;;
76423;SDS011;65257;52.104;4.268;2023-09-08T10:33:07;17.90;;;11.52;;
76423;SDS011;65257;52.104;4.268;2023-09-08T10:35:37;24.48;;;13.48;;
76423;SDS011;65257;52.104;4.268;2023-09-08T10:38:26;19.63;;;14.73;;
76423;SDS011;65257;52.104;4.268;2023-09-08T10:43:40;21.90;;;15.45;;
76423;SDS011;65257;52.104;4.268;2023-09-08T10:46:09;19.77;;;15.05;;
76423;SDS011;65257;52.104;4.268;2023-09-08T10:48:41;20.20;;;14.30;;
76423;SDS011;65257;52.104;4.268;2023-09-08T10:51:15;20.10;;;15.77;;
76423;SDS011;65257;52.104;4.268;2023-09-08T10:53:48;18.35;;;15.23;;
76423;SDS011;65257;52.104;4.268;2023-09-08T10:56:15;21.63;;;13.07;;
76423;SDS011;65257;52.104;4.268;2023-09-08T10:58:51;16.15;;;12.80;;
76423;SDS011;65257;52.104;4.268;2023-09-08T11:01:20;16.70;;;11.27;;
76423;SDS011;65257;52.104;4.268;2023-09-08T11:03:51;15.73;;;12.02;;
76423;SDS011;65257;52.104;4.268;2023-09-08T11:06:19;16.52;;;11.85;;
76423;SDS011;65257;52.104;4.268;2023-09-08T11:08:48;19.60;;;12.85;;
76423;SDS011;65257;52.104;4.268;2023-09-08T11:11:15;19.58;;;15.35;;
76423;SDS011;65257;52.104;4.268;2023-09-08T11:13:44;19.30;;;16.10;;
76423;SDS011;65257;52.104;4.268;2023-09-08T11:16:16;18.25;;;14.57;;
76423;SDS011;65257;52.104;4.268;2023-09-08T11:18:50;16.25;;;13.88;;
76423;SDS011;65257;52.104;4.268;2023-09-08T11:21:16;17.48;;;11.57;;
76423;SDS011;65257;52.104;4.268;2023-09-08T11:23:44;16.25;;;11.85;;
76423;SDS011;65257;52.104;4.268;2023-09-08T11:26:13;16.75;;;13.85;;
76423;SDS011;65257;52.104;4.268;2023-09-08T11:28:42;22.30;;;14.65;;
76423;SDS011;65257;52.104;4.268;2023-09-08T11:31:07;18.73;;;15.88;;
76423;SDS011;65257;52.104;4.268;2023-09-08T11:33:34;19.60;;;15.90;;
76423;SDS011;65257;52.104;4.268;2023-09-08T11:36:10;16.45;;;14.45;;
76423;SDS011;65257;52.104;4.268;2023-09-08T11:38:41;17.35;;;15.02;;
76423;SDS011;65257;52.104;4.268;2023-09-08T11:41:08;18.33;;;14.35;;
76423;SDS011;65257;52.104;4.268;2023-09-08T11:43:37;18.77;;;14.05;;
76423;SDS011;65257;52.104;4.268;2023-09-08T11:46:03;17.35;;;13.77;;
76423;SDS011;65257;52.104;4.268;2023-09-08T11:48:29;18.75;;;15.77;;
76423;SDS011;65257;52.104;4.268;2023-09-08T11:50:54;19.65;;;15.85;;
76423;SDS011;65257;52.104;4.268;2023-09-08T11:53:20;19.45;;;16.65;;
76423;SDS011;65257;52.104;4.268;2023-09-08T11:55:50;20.33;;;15.95;;
76423;SDS011;65257;52.104;4.268;2023-09-08T11:58:19;21.80;;;16.65;;
76423;SDS011;65257;52.104;4.268;2023-09-08T12:00:48;19.55;;;16.10;;
76423;SDS011;65257;52.104;4.268;2023-09-08T12:03:15;19.08;;;15.18;;
76423;SDS011;65257;52.104;4.268;2023-09-08T12:05:42;22.08;;;17.38;;
76423;SDS011;65257;52.104;4.268;2023-09-08T12:08:10;20.95;;;17.90;;
76423;SDS011;65257;52.104;4.268;2023-09-08T12:10:39;23.85;;;18.73;;
76423;SDS011;65257;52.104;4.268;2023-09-08T12:13:10;21.95;;;17.45;;
76423;SDS011;65257;52.104;4.268;2023-09-08T12:15:41;23.27;;;18.55;;
76423;SDS011;65257;52.104;4.268;2023-09-08T12:18:10;26.98;;;20.23;;
76423;SDS011;65257;52.104;4.268;2023-09-08T12:20:37;22.10;;;18.42;;
76423;SDS011;65257;52.104;4.268;2023-09-08T12:23:04;23.58;;;20.52;;
76423;SDS011;65257;52.104;4.268;2023-09-08T12:25:30;24.58;;;20.67;;
76423;SDS011;65257;52.104;4.268;2023-09-08T12:28:17;20.95;;;17.40;;
76423;SDS011;65257;52.104;4.268;2023-09-08T12:30:44;23.13;;;18.70;;
76423;SDS011;65257;52.104;4.268;2023-09-08T12:33:10;26.75;;;19.58;;
76423;SDS011;65257;52.104;4.268;2023-09-08T12:35:38;23.77;;;19.85;;
76423;SDS011;65257;52.104;4.268;2023-09-08T12:38:07;20.67;;;16.35;;
76423;SDS011;65257;52.104;4.268;2023-09-08T12:40:33;20.90;;;17.17;;
76423;SDS011;65257;52.104;4.268;2023-09-08T12:43:01;20.42;;;16.83;;
76423;SDS011;65257;52.104;4.268;2023-09-08T12:45:26;21.42;;;14.60;;
76423;SDS011;65257;52.104;4.268;2023-09-08T12:47:53;18.48;;;14.57;;
76423;SDS011;65257;52.104;4.268;2023-09-08T12:50:23;18.77;;;14.95;;
76423;SDS011;65257;52.104;4.268;2023-09-08T12:52:49;22.50;;;15.73;;
76423;SDS011;65257;52.104;4.268;2023-09-08T12:55:15;20.50;;;17.77;;
76423;SDS011;65257;52.104;4.268;2023-09-08T12:57:40;21.60;;;17.90;;
76423;SDS011;65257;52.104;4.268;2023-09-08T13:00:06;24.65;;;16.67;;
76423;SDS011;65257;52.104;4.268;2023-09-08T13:02:32;21.02;;;16.85;;
76423;SDS011;65257;52.104;4.268;2023-09-08T13:04:58;23.02;;;18.05;;
76423;SDS011;65257;52.104;4.268;2023-09-08T13:07:23;24.35;;;17.92;;
76423;SDS011;65257;52.104;4.268;2023-09-08T13:09:52;21.38;;;16.73;;
76423;SDS011;65257;52.104;4.268;2023-09-08T13:12:20;23.85;;;17.80;;
76423;SDS011;65257;52.104;4.268;2023-09-08T13:14:46;23.70;;;17.73;;
76423;SDS011;65257;52.104;4.268;2023-09-08T13:17:11;25.90;;;19.70;;
76423;SDS011;65257;52.104;4.268;2023-09-08T13:19:44;25.38;;;19.23;;
76423;SDS011;65257;52.104;4.268;2023-09-08T13:22:15;25.67;;;18.98;;
76423;SDS011;65257;52.104;4.268;2023-09-08T13:24:41;25.02;;;20.15;;
76423;SDS011;65257;52.104;4.268;2023-09-08T13:27:06;25.17;;;19.98;;
76423;SDS011;65257;52.104;4.268;2023-09-08T13:29:35;29.48;;;20.15;;
76423;SDS011;65257;52.104;4.268;2023-09-08T13:32:00;26.83;;;20.58;;
76423;SDS011;65257;52.104;4.268;2023-09-08T13:34:28;27.27;;;20.20;;
76423;SDS011;65257;52.104;4.268;2023-09-08T13:36:57;31.15;;;21.10;;
76423;SDS011;65257;52.104;4.268;2023-09-08T13:39:23;31.52;;;22.80;;
76423;SDS011;65257;52.104;4.268;2023-09-08T13:41:55;28.75;;;21.58;;
76423;SDS011;65257;52.104;4.268;2023-09-08T13:44:21;28.48;;;20.48;;
76423;SDS011;65257;52.104;4.268;2023-09-08T13:46:52;27.42;;;22.00;;
76423;SDS011;65257;52.104;4.268;2023-09-08T13:49:18;26.95;;;21.08;;
76423;SDS011;65257;52.104;4.268;2023-09-08T13:51:45;30.10;;;23.27;;
76423;SDS011;65257;52.104;4.268;2023-09-08T13:54:12;32.33;;;24.35;;
76423;SDS011;65257;52.104;4.268;2023-09-08T13:56:38;32.08;;;25.00;;
76423;SDS011;65257;52.104;4.268;2023-09-08T13:59:05;33.50;;;25.85;;
76423;SDS011;65257;52.104;4.268;2023-09-08T14:01:36;35.65;;;26.83;;
76423;SDS011;65257;52.104;4.268;2023-09-08T14:04:02;38.90;;;28.80;;
76423;SDS011;65257;52.104;4.268;2023-09-08T14:06:31;40.60;;;29.48;;
76423;SDS011;65257;52.104;4.268;2023-09-08T14:08:57;42.70;;;29.00;;
76423;SDS011;65257;52.104;4.268;2023-09-08T14:11:23;39.78;;;28.42;;
76423;SDS011;65257;52.104;4.268;2023-09-08T14:13:52;39.85;;;28.42;;
76423;SDS011;65257;52.104;4.268;2023-09-08T14:16:23;41.50;;;28.98;;
76423;SDS011;65257;52.104;4.268;2023-09-08T14:18:48;40.03;;;28.95;;
76423;SDS011;65257;52.104;4.268;2023-09-08T14:21:14;43.80;;;30.52;;
76423;SDS011;65257;52.104;4.268;2023-09-08T14:23:39;46.10;;;31.15;;
76423;SDS011;65257;52.104;4.268;2023-09-08T14:26:07;39.67;;;30.60;;
76423;SDS011;65257;52.104;4.268;2023-09-08T14:28:36;47.45;;;33.35;;
76423;SDS011;65257;52.104;4.268;2023-09-08T14:31:01;50.88;;;36.30;;
76423;SDS011;65257;52.104;4.268;2023-09-08T14:33:30;52.25;;;39.40;;
76423;SDS011;65257;52.104;4.268;2023-09-08T14:35:56;48.33;;;35.45;;
76423;SDS011;65257;52.104;4.268;2023-09-08T14:38:22;49.00;;;34.55;;
76423;SDS011;65257;52.104;4.268;2023-09-08T14:43:23;48.50;;;34.95;;